sensor_id;sensor_type;location;lat;lon;timestamp;temperature;humidity
8994;DHT22;4532;50.886;4.700;2023-03-07T00:01:32;8.30;99.90
8994;DHT22;4532;50.886;4.700;2023-03-07T00:04:00;8.30;99.90
8994;DHT22;4532;50.886;4.700;2023-03-07T00:06:28;8.30;99.90
8994;DHT22;4532;50.886;4.700;2023-03-07T00:09:01;8.30;99.90
8994;DHT22;4532;50.886;4.700;2023-03-07T00:11:31;8.20;99.90
8994;DHT22;4532;50.886;4.700;2023-03-07T00:14:03;8.20;99.90
8994;DHT22;4532;50.886;4.700;2023-03-07T00:16:31;8.10;99.90
8994;DHT22;4532;50.886;4.700;2023-03-07T00:19:01;8.10;99.90
8994;DHT22;4532;50.886;4.700;2023-03-07T00:21:33;8.10;99.90
8994;DHT22;4532;50.886;4.700;2023-03-07T00:24:00;8.10;99.90
8994;DHT22;4532;50.886;4.700;2023-03-07T00:26:32;8.10;99.90
8994;DHT22;4532;50.886;4.700;2023-03-07T00:29:06;8.10;99.90
8994;DHT22;4532;50.886;4.700;2023-03-07T00:31:36;8.10;99.90
8994;DHT22;4532;50.886;4.700;2023-03-07T00:34:04;8.10;99.90
8994;DHT22;4532;50.886;4.700;2023-03-07T00:36:31;8.10;99.90
8994;DHT22;4532;50.886;4.700;2023-03-07T00:39:03;8.10;99.90
8994;DHT22;4532;50.886;4.700;2023-03-07T00:41:35;8.10;99.90
8994;DHT22;4532;50.886;4.700;2023-03-07T00:44:05;8.10;99.90
8994;DHT22;4532;50.886;4.700;2023-03-07T00:46:33;8.10;99.90
8994;DHT22;4532;50.886;4.700;2023-03-07T00:49:00;8.10;99.90
8994;DHT22;4532;50.886;4.700;2023-03-07T00:51:27;8.10;99.90
8994;DHT22;4532;50.886;4.700;2023-03-07T00:53:57;8.20;99.90
8994;DHT22;4532;50.886;4.700;2023-03-07T00:56:24;8.10;99.90
8994;DHT22;4532;50.886;4.700;2023-03-07T00:58:52;8.10;99.90
8994;DHT22;4532;50.886;4.700;2023-03-07T01:01:23;8.20;99.90
8994;DHT22;4532;50.886;4.700;2023-03-07T01:03:53;8.20;99.90
8994;DHT22;4532;50.886;4.700;2023-03-07T01:06:26;8.20;99.90
8994;DHT22;4532;50.886;4.700;2023-03-07T01:08:55;8.20;99.90
8994;DHT22;4532;50.886;4.700;2023-03-07T01:11:27;8.20;99.90
8994;DHT22;4532;50.886;4.700;2023-03-07T01:13:58;8.20;99.90
8994;DHT22;4532;50.886;4.700;2023-03-07T01:16:30;8.20;99.90
8994;DHT22;4532;50.886;4.700;2023-03-07T01:19:01;8.20;99.90
8994;DHT22;4532;50.886;4.700;2023-03-07T01:21:36;8.20;99.90
8994;DHT22;4532;50.886;4.700;2023-03-07T01:24:05;8.20;99.90
8994;DHT22;4532;50.886;4.700;2023-03-07T01:26:36;8.20;99.90
8994;DHT22;4532;50.886;4.700;2023-03-07T01:29:04;8.20;99.90
8994;DHT22;4532;50.886;4.700;2023-03-07T01:31:34;8.20;99.90
8994;DHT22;4532;50.886;4.700;2023-03-07T01:34:03;8.20;99.90
8994;DHT22;4532;50.886;4.700;2023-03-07T01:36:34;8.20;99.90
8994;DHT22;4532;50.886;4.700;2023-03-07T01:39:13;8.20;99.90
8994;DHT22;4532;50.886;4.700;2023-03-07T01:41:46;8.20;99.90
8994;DHT22;4532;50.886;4.700;2023-03-07T01:44:18;8.10;99.90
8994;DHT22;4532;50.886;4.700;2023-03-07T01:54:39;8.10;99.90
8994;DHT22;4532;50.886;4.700;2023-03-07T01:57:08;8.10;99.90
8994;DHT22;4532;50.886;4.700;2023-03-07T01:59:39;8.00;99.90
8994;DHT22;4532;50.886;4.700;2023-03-07T02:02:14;8.10;99.90
8994;DHT22;4532;50.886;4.700;2023-03-07T02:04:56;8.10;99.90
8994;DHT22;4532;50.886;4.700;2023-03-07T02:07:34;8.10;99.90
8994;DHT22;4532;50.886;4.700;2023-03-07T02:10:04;8.10;99.90
8994;DHT22;4532;50.886;4.700;2023-03-07T02:12:39;8.10;99.90
8994;DHT22;4532;50.886;4.700;2023-03-07T02:15:11;8.00;99.90
8994;DHT22;4532;50.886;4.700;2023-03-07T02:17:41;8.00;99.90
8994;DHT22;4532;50.886;4.700;2023-03-07T02:22:49;8.10;99.90
8994;DHT22;4532;50.886;4.700;2023-03-07T02:25:39;8.00;99.90
8994;DHT22;4532;50.886;4.700;2023-03-07T02:28:13;8.00;99.90
8994;DHT22;4532;50.886;4.700;2023-03-07T02:30:56;8.00;99.90
8994;DHT22;4532;50.886;4.700;2023-03-07T02:33:24;8.00;99.90
8994;DHT22;4532;50.886;4.700;2023-03-07T02:36:00;8.00;99.90
8994;DHT22;4532;50.886;4.700;2023-03-07T02:38:38;8.00;99.90
8994;DHT22;4532;50.886;4.700;2023-03-07T02:41:10;8.00;99.90
8994;DHT22;4532;50.886;4.700;2023-03-07T02:43:38;8.00;99.90
8994;DHT22;4532;50.886;4.700;2023-03-07T02:46:05;7.90;99.90
8994;DHT22;4532;50.886;4.700;2023-03-07T02:48:38;8.00;99.90
8994;DHT22;4532;50.886;4.700;2023-03-07T02:51:12;8.00;99.90
8994;DHT22;4532;50.886;4.700;2023-03-07T02:53:41;8.00;99.90
8994;DHT22;4532;50.886;4.700;2023-03-07T02:56:11;7.90;99.90
8994;DHT22;4532;50.886;4.700;2023-03-07T02:58:41;7.90;99.90
8994;DHT22;4532;50.886;4.700;2023-03-07T03:01:08;7.90;99.90
8994;DHT22;4532;50.886;4.700;2023-03-07T03:03:35;7.90;99.90
8994;DHT22;4532;50.886;4.700;2023-03-07T03:06:07;7.90;99.90
8994;DHT22;4532;50.886;4.700;2023-03-07T03:08:36;7.90;99.90
8994;DHT22;4532;50.886;4.700;2023-03-07T03:11:06;7.90;99.90
8994;DHT22;4532;50.886;4.700;2023-03-07T03:13:33;7.90;99.90
8994;DHT22;4532;50.886;4.700;2023-03-07T03:16:00;7.90;99.90
8994;DHT22;4532;50.886;4.700;2023-03-07T03:18:28;7.90;99.90
8994;DHT22;4532;50.886;4.700;2023-03-07T03:20:58;7.90;99.90
8994;DHT22;4532;50.886;4.700;2023-03-07T03:23:28;7.90;99.90
8994;DHT22;4532;50.886;4.700;2023-03-07T03:25:59;7.90;99.90
8994;DHT22;4532;50.886;4.700;2023-03-07T03:28:27;7.80;99.90
8994;DHT22;4532;50.886;4.700;2023-03-07T03:31:04;7.90;99.90
8994;DHT22;4532;50.886;4.700;2023-03-07T03:33:37;7.90;99.90
8994;DHT22;4532;50.886;4.700;2023-03-07T03:36:10;7.90;99.90
8994;DHT22;4532;50.886;4.700;2023-03-07T03:38:40;7.90;99.90
8994;DHT22;4532;50.886;4.700;2023-03-07T03:41:12;7.90;99.90
8994;DHT22;4532;50.886;4.700;2023-03-07T03:43:41;7.90;99.90
8994;DHT22;4532;50.886;4.700;2023-03-07T03:46:09;7.90;99.90
8994;DHT22;4532;50.886;4.700;2023-03-07T03:48:38;7.90;99.90
8994;DHT22;4532;50.886;4.700;2023-03-07T03:51:09;7.90;99.90
8994;DHT22;4532;50.886;4.700;2023-03-07T03:53:38;7.90;99.90
8994;DHT22;4532;50.886;4.700;2023-03-07T03:56:10;7.90;99.90
8994;DHT22;4532;50.886;4.700;2023-03-07T03:58:39;7.90;99.90
8994;DHT22;4532;50.886;4.700;2023-03-07T04:01:09;7.80;99.90
8994;DHT22;4532;50.886;4.700;2023-03-07T04:03:39;7.80;99.90
8994;DHT22;4532;50.886;4.700;2023-03-07T04:06:09;7.80;99.90
8994;DHT22;4532;50.886;4.700;2023-03-07T04:08:39;7.90;99.90
8994;DHT22;4532;50.886;4.700;2023-03-07T04:11:07;7.90;99.90
8994;DHT22;4532;50.886;4.700;2023-03-07T04:13:34;7.90;99.90
8994;DHT22;4532;50.886;4.700;2023-03-07T04:16:05;7.90;99.90
8994;DHT22;4532;50.886;4.700;2023-03-07T04:18:35;7.90;99.90
8994;DHT22;4532;50.886;4.700;2023-03-07T04:21:06;7.80;99.90
8994;DHT22;4532;50.886;4.700;2023-03-07T04:23:33;7.80;99.90
8994;DHT22;4532;50.886;4.700;2023-03-07T04:26:04;7.80;99.90
8994;DHT22;4532;50.886;4.700;2023-03-07T04:28:35;7.90;99.90
8994;DHT22;4532;50.886;4.700;2023-03-07T04:31:25;7.80;99.90
8994;DHT22;4532;50.886;4.700;2023-03-07T04:33:55;7.80;99.90
8994;DHT22;4532;50.886;4.700;2023-03-07T04:36:25;7.80;99.90
8994;DHT22;4532;50.886;4.700;2023-03-07T04:38:55;7.80;99.90
8994;DHT22;4532;50.886;4.700;2023-03-07T04:41:25;7.90;99.90
8994;DHT22;4532;50.886;4.700;2023-03-07T04:43:52;7.90;99.90
8994;DHT22;4532;50.886;4.700;2023-03-07T04:46:20;7.80;99.90
8994;DHT22;4532;50.886;4.700;2023-03-07T04:48:56;7.80;99.90
8994;DHT22;4532;50.886;4.700;2023-03-07T04:51:23;7.90;99.90
8994;DHT22;4532;50.886;4.700;2023-03-07T04:53:50;7.90;99.90
8994;DHT22;4532;50.886;4.700;2023-03-07T04:56:22;7.90;99.90
8994;DHT22;4532;50.886;4.700;2023-03-07T04:58:51;7.90;99.90
8994;DHT22;4532;50.886;4.700;2023-03-07T05:01:19;7.90;99.90
8994;DHT22;4532;50.886;4.700;2023-03-07T05:03:56;7.90;99.90
8994;DHT22;4532;50.886;4.700;2023-03-07T05:06:24;7.80;99.90
8994;DHT22;4532;50.886;4.700;2023-03-07T05:08:56;7.80;99.90
8994;DHT22;4532;50.886;4.700;2023-03-07T05:11:23;7.80;99.90
8994;DHT22;4532;50.886;4.700;2023-03-07T05:13:50;7.80;99.90
8994;DHT22;4532;50.886;4.700;2023-03-07T05:16:17;7.80;99.90
8994;DHT22;4532;50.886;4.700;2023-03-07T05:18:45;7.80;99.90
8994;DHT22;4532;50.886;4.700;2023-03-07T05:21:16;7.80;99.90
8994;DHT22;4532;50.886;4.700;2023-03-07T05:23:50;7.80;99.90
8994;DHT22;4532;50.886;4.700;2023-03-07T05:26:22;7.80;99.90
8994;DHT22;4532;50.886;4.700;2023-03-07T05:28:49;7.80;99.90
8994;DHT22;4532;50.886;4.700;2023-03-07T05:31:19;7.80;99.90
8994;DHT22;4532;50.886;4.700;2023-03-07T05:33:49;7.80;99.90
8994;DHT22;4532;50.886;4.700;2023-03-07T05:36:16;7.80;99.90
8994;DHT22;4532;50.886;4.700;2023-03-07T05:38:46;7.80;99.90
8994;DHT22;4532;50.886;4.700;2023-03-07T05:41:18;7.80;99.90
8994;DHT22;4532;50.886;4.700;2023-03-07T05:43:45;7.80;99.90
8994;DHT22;4532;50.886;4.700;2023-03-07T05:46:13;7.80;99.90
8994;DHT22;4532;50.886;4.700;2023-03-07T05:48:40;7.80;99.90
8994;DHT22;4532;50.886;4.700;2023-03-07T05:51:09;7.80;99.90
8994;DHT22;4532;50.886;4.700;2023-03-07T05:53:39;7.80;99.90
8994;DHT22;4532;50.886;4.700;2023-03-07T05:56:07;7.80;99.90
8994;DHT22;4532;50.886;4.700;2023-03-07T05:58:38;7.80;99.90
8994;DHT22;4532;50.886;4.700;2023-03-07T06:01:06;7.80;99.90
8994;DHT22;4532;50.886;4.700;2023-03-07T06:03:35;7.80;99.90
8994;DHT22;4532;50.886;4.700;2023-03-07T06:06:04;7.80;99.90
8994;DHT22;4532;50.886;4.700;2023-03-07T06:08:34;7.80;99.90
8994;DHT22;4532;50.886;4.700;2023-03-07T06:11:04;7.80;99.90
8994;DHT22;4532;50.886;4.700;2023-03-07T06:13:31;7.80;99.90
8994;DHT22;4532;50.886;4.700;2023-03-07T06:15:58;7.80;99.90
8994;DHT22;4532;50.886;4.700;2023-03-07T06:18:25;7.70;99.90
8994;DHT22;4532;50.886;4.700;2023-03-07T06:21:02;7.80;99.90
8994;DHT22;4532;50.886;4.700;2023-03-07T06:23:36;7.70;99.90
8994;DHT22;4532;50.886;4.700;2023-03-07T06:26:05;7.70;99.90
8994;DHT22;4532;50.886;4.700;2023-03-07T06:28:39;7.70;99.90
8994;DHT22;4532;50.886;4.700;2023-03-07T06:31:16;7.70;99.90
8994;DHT22;4532;50.886;4.700;2023-03-07T06:33:44;7.70;99.90
8994;DHT22;4532;50.886;4.700;2023-03-07T06:36:13;7.80;99.90
8994;DHT22;4532;50.886;4.700;2023-03-07T06:38:43;7.80;99.90
8994;DHT22;4532;50.886;4.700;2023-03-07T06:41:10;7.80;99.90
8994;DHT22;4532;50.886;4.700;2023-03-07T06:43:40;7.80;99.90
8994;DHT22;4532;50.886;4.700;2023-03-07T06:46:09;7.80;99.90
8994;DHT22;4532;50.886;4.700;2023-03-07T06:48:37;7.80;99.90
8994;DHT22;4532;50.886;4.700;2023-03-07T06:51:07;7.80;99.90
8994;DHT22;4532;50.886;4.700;2023-03-07T06:53:41;7.80;99.90
8994;DHT22;4532;50.886;4.700;2023-03-07T06:56:13;7.80;99.90
8994;DHT22;4532;50.886;4.700;2023-03-07T06:58:40;7.80;99.90
8994;DHT22;4532;50.886;4.700;2023-03-07T07:01:17;7.90;99.90
8994;DHT22;4532;50.886;4.700;2023-03-07T07:03:45;7.90;99.90
8994;DHT22;4532;50.886;4.700;2023-03-07T07:06:17;7.90;99.90
8994;DHT22;4532;50.886;4.700;2023-03-07T07:08:46;7.90;99.90
8994;DHT22;4532;50.886;4.700;2023-03-07T07:11:13;7.90;99.90
8994;DHT22;4532;50.886;4.700;2023-03-07T07:13:40;7.80;99.90
8994;DHT22;4532;50.886;4.700;2023-03-07T07:16:10;7.90;99.90
8994;DHT22;4532;50.886;4.700;2023-03-07T07:18:38;7.90;99.90
8994;DHT22;4532;50.886;4.700;2023-03-07T07:21:07;7.90;99.90
8994;DHT22;4532;50.886;4.700;2023-03-07T07:23:34;7.90;99.90
8994;DHT22;4532;50.886;4.700;2023-03-07T07:26:07;8.00;99.90
8994;DHT22;4532;50.886;4.700;2023-03-07T07:28:39;8.00;99.90
8994;DHT22;4532;50.886;4.700;2023-03-07T07:31:06;8.00;99.90
8994;DHT22;4532;50.886;4.700;2023-03-07T07:33:34;8.00;99.90
8994;DHT22;4532;50.886;4.700;2023-03-07T07:36:04;8.00;99.90
8994;DHT22;4532;50.886;4.700;2023-03-07T07:38:36;8.00;99.90
8994;DHT22;4532;50.886;4.700;2023-03-07T07:41:04;8.00;99.90
8994;DHT22;4532;50.886;4.700;2023-03-07T07:43:33;8.00;99.90
8994;DHT22;4532;50.886;4.700;2023-03-07T07:46:06;8.10;99.90
8994;DHT22;4532;50.886;4.700;2023-03-07T07:48:36;8.10;99.90
8994;DHT22;4532;50.886;4.700;2023-03-07T07:51:08;8.10;99.90
8994;DHT22;4532;50.886;4.700;2023-03-07T07:53:35;8.10;99.90
8994;DHT22;4532;50.886;4.700;2023-03-07T07:56:02;8.10;99.90
8994;DHT22;4532;50.886;4.700;2023-03-07T07:58:30;8.10;99.90
8994;DHT22;4532;50.886;4.700;2023-03-07T08:01:02;8.10;99.90
8994;DHT22;4532;50.886;4.700;2023-03-07T08:03:37;8.20;99.90
8994;DHT22;4532;50.886;4.700;2023-03-07T08:06:04;8.20;99.90
8994;DHT22;4532;50.886;4.700;2023-03-07T08:08:32;8.20;99.90
8994;DHT22;4532;50.886;4.700;2023-03-07T08:11:04;8.20;99.90
8994;DHT22;4532;50.886;4.700;2023-03-07T08:13:34;8.20;99.90
8994;DHT22;4532;50.886;4.700;2023-03-07T08:16:09;8.20;99.90
8994;DHT22;4532;50.886;4.700;2023-03-07T08:18:40;8.20;99.90
8994;DHT22;4532;50.886;4.700;2023-03-07T08:21:07;8.20;99.90
8994;DHT22;4532;50.886;4.700;2023-03-07T08:23:37;8.20;99.90
8994;DHT22;4532;50.886;4.700;2023-03-07T08:26:09;8.20;99.90
8994;DHT22;4532;50.886;4.700;2023-03-07T08:28:39;8.20;99.90
8994;DHT22;4532;50.886;4.700;2023-03-07T08:31:21;8.30;99.90
8994;DHT22;4532;50.886;4.700;2023-03-07T08:33:50;8.30;99.90
8994;DHT22;4532;50.886;4.700;2023-03-07T08:36:24;8.30;99.90
8994;DHT22;4532;50.886;4.700;2023-03-07T08:38:51;8.30;99.90
8994;DHT22;4532;50.886;4.700;2023-03-07T08:41:22;8.20;99.90
8994;DHT22;4532;50.886;4.700;2023-03-07T08:43:55;8.20;99.90
8994;DHT22;4532;50.886;4.700;2023-03-07T08:46:25;8.20;99.90
8994;DHT22;4532;50.886;4.700;2023-03-07T08:48:52;8.20;99.90
8994;DHT22;4532;50.886;4.700;2023-03-07T08:51:22;8.20;99.90
8994;DHT22;4532;50.886;4.700;2023-03-07T08:53:51;8.20;99.90
8994;DHT22;4532;50.886;4.700;2023-03-07T08:56:19;8.20;99.90
8994;DHT22;4532;50.886;4.700;2023-03-07T08:58:46;8.20;99.90
8994;DHT22;4532;50.886;4.700;2023-03-07T09:01:16;8.20;99.90
8994;DHT22;4532;50.886;4.700;2023-03-07T09:03:43;8.20;99.90
8994;DHT22;4532;50.886;4.700;2023-03-07T09:06:19;8.20;99.90
8994;DHT22;4532;50.886;4.700;2023-03-07T09:08:50;8.30;99.90
8994;DHT22;4532;50.886;4.700;2023-03-07T09:11:20;8.20;99.90
8994;DHT22;4532;50.886;4.700;2023-03-07T09:13:48;8.20;99.90
8994;DHT22;4532;50.886;4.700;2023-03-07T09:16:19;8.20;99.90
8994;DHT22;4532;50.886;4.700;2023-03-07T09:18:52;8.30;99.90
8994;DHT22;4532;50.886;4.700;2023-03-07T09:21:22;8.30;99.90
8994;DHT22;4532;50.886;4.700;2023-03-07T09:23:49;8.30;99.90
8994;DHT22;4532;50.886;4.700;2023-03-07T09:26:19;8.40;99.90
8994;DHT22;4532;50.886;4.700;2023-03-07T09:28:48;8.40;99.90
8994;DHT22;4532;50.886;4.700;2023-03-07T09:31:16;8.40;99.90
8994;DHT22;4532;50.886;4.700;2023-03-07T09:33:48;8.30;99.90
8994;DHT22;4532;50.886;4.700;2023-03-07T09:36:19;8.30;99.90
8994;DHT22;4532;50.886;4.700;2023-03-07T09:38:46;8.30;99.90
8994;DHT22;4532;50.886;4.700;2023-03-07T09:50:16;8.40;99.90
8994;DHT22;4532;50.886;4.700;2023-03-07T09:52:49;8.40;99.90
8994;DHT22;4532;50.886;4.700;2023-03-07T09:55:22;8.40;99.90
8994;DHT22;4532;50.886;4.700;2023-03-07T09:57:53;8.40;99.90
8994;DHT22;4532;50.886;4.700;2023-03-07T10:00:37;8.40;99.90
8994;DHT22;4532;50.886;4.700;2023-03-07T10:03:20;8.40;99.90
8994;DHT22;4532;50.886;4.700;2023-03-07T10:05:56;8.40;99.90
8994;DHT22;4532;50.886;4.700;2023-03-07T10:08:32;8.50;99.90
8994;DHT22;4532;50.886;4.700;2023-03-07T10:27:14;8.40;99.90
8994;DHT22;4532;50.886;4.700;2023-03-07T10:29:49;8.40;99.90
8994;DHT22;4532;50.886;4.700;2023-03-07T10:43:05;8.40;99.90
8994;DHT22;4532;50.886;4.700;2023-03-07T10:45:32;8.40;99.90
8994;DHT22;4532;50.886;4.700;2023-03-07T10:48:05;8.40;99.90
8994;DHT22;4532;50.886;4.700;2023-03-07T10:53:35;8.30;99.90
8994;DHT22;4532;50.886;4.700;2023-03-07T10:56:13;8.30;99.90
8994;DHT22;4532;50.886;4.700;2023-03-07T11:01:33;8.30;99.90
8994;DHT22;4532;50.886;4.700;2023-03-07T11:06:33;8.30;99.90
8994;DHT22;4532;50.886;4.700;2023-03-07T11:09:21;8.40;99.90
8994;DHT22;4532;50.886;4.700;2023-03-07T11:14:50;8.50;99.90
8994;DHT22;4532;50.886;4.700;2023-03-07T11:17:22;8.50;99.90
8994;DHT22;4532;50.886;4.700;2023-03-07T11:19:55;8.50;99.90
8994;DHT22;4532;50.886;4.700;2023-03-07T11:22:31;8.60;99.90
8994;DHT22;4532;50.886;4.700;2023-03-07T11:25:17;8.60;99.90
8994;DHT22;4532;50.886;4.700;2023-03-07T11:30:30;8.60;99.90
8994;DHT22;4532;50.886;4.700;2023-03-07T11:38:35;8.50;99.90
8994;DHT22;4532;50.886;4.700;2023-03-07T11:49:06;8.40;99.90
8994;DHT22;4532;50.886;4.700;2023-03-07T11:54:30;8.30;99.90
8994;DHT22;4532;50.886;4.700;2023-03-07T11:57:10;8.30;99.90
8994;DHT22;4532;50.886;4.700;2023-03-07T12:03:22;8.20;99.90
8994;DHT22;4532;50.886;4.700;2023-03-07T12:08:39;8.10;99.90
8994;DHT22;4532;50.886;4.700;2023-03-07T12:11:38;8.10;99.90
8994;DHT22;4532;50.886;4.700;2023-03-07T12:17:11;8.00;99.90
8994;DHT22;4532;50.886;4.700;2023-03-07T12:22:34;8.00;99.90
8994;DHT22;4532;50.886;4.700;2023-03-07T12:25:42;7.90;99.90
8994;DHT22;4532;50.886;4.700;2023-03-07T12:28:25;7.90;99.90
8994;DHT22;4532;50.886;4.700;2023-03-07T12:31:23;7.90;99.90
8994;DHT22;4532;50.886;4.700;2023-03-07T12:33:58;7.80;99.90
8994;DHT22;4532;50.886;4.700;2023-03-07T12:50:28;7.80;99.90
8994;DHT22;4532;50.886;4.700;2023-03-07T13:04:37;7.90;99.90
8994;DHT22;4532;50.886;4.700;2023-03-07T13:09:44;8.00;99.90
8994;DHT22;4532;50.886;4.700;2023-03-07T13:14:44;8.00;99.90
8994;DHT22;4532;50.886;4.700;2023-03-07T13:24:55;8.00;99.90
8994;DHT22;4532;50.886;4.700;2023-03-07T13:27:26;8.00;99.90
8994;DHT22;4532;50.886;4.700;2023-03-07T13:53:48;8.00;99.90
8994;DHT22;4532;50.886;4.700;2023-03-07T13:56:27;8.00;99.90
8994;DHT22;4532;50.886;4.700;2023-03-07T14:07:28;7.90;99.90
8994;DHT22;4532;50.886;4.700;2023-03-07T14:10:25;7.90;99.90
8994;DHT22;4532;50.886;4.700;2023-03-07T14:13:00;7.90;99.90
8994;DHT22;4532;50.886;4.700;2023-03-07T14:26:34;7.90;99.90
8994;DHT22;4532;50.886;4.700;2023-03-07T14:29:21;7.90;99.90
8994;DHT22;4532;50.886;4.700;2023-03-07T14:31:54;7.90;99.90
8994;DHT22;4532;50.886;4.700;2023-03-07T14:34:35;7.90;99.90
8994;DHT22;4532;50.886;4.700;2023-03-07T14:50:58;8.00;99.90
8994;DHT22;4532;50.886;4.700;2023-03-07T14:53:30;8.10;99.90
8994;DHT22;4532;50.886;4.700;2023-03-07T14:56:10;8.10;99.90
8994;DHT22;4532;50.886;4.700;2023-03-07T14:58:50;8.10;99.90
8994;DHT22;4532;50.886;4.700;2023-03-07T15:01:18;8.20;99.90
8994;DHT22;4532;50.886;4.700;2023-03-07T15:03:52;8.20;99.90
8994;DHT22;4532;50.886;4.700;2023-03-07T15:06:25;8.20;99.90
8994;DHT22;4532;50.886;4.700;2023-03-07T15:08:58;8.20;99.90
8994;DHT22;4532;50.886;4.700;2023-03-07T15:12:11;8.20;99.90
8994;DHT22;4532;50.886;4.700;2023-03-07T15:14:52;8.30;99.90
8994;DHT22;4532;50.886;4.700;2023-03-07T15:17:26;8.30;99.90
8994;DHT22;4532;50.886;4.700;2023-03-07T15:19:58;8.30;99.90
8994;DHT22;4532;50.886;4.700;2023-03-07T15:22:27;8.30;99.90
8994;DHT22;4532;50.886;4.700;2023-03-07T15:24:58;8.30;99.90
8994;DHT22;4532;50.886;4.700;2023-03-07T15:27:29;8.20;99.90
8994;DHT22;4532;50.886;4.700;2023-03-07T15:30:01;8.20;99.90
8994;DHT22;4532;50.886;4.700;2023-03-07T15:32:39;8.20;99.90
8994;DHT22;4532;50.886;4.700;2023-03-07T15:38:00;8.10;99.90
8994;DHT22;4532;50.886;4.700;2023-03-07T15:40:37;8.00;99.90
8994;DHT22;4532;50.886;4.700;2023-03-07T15:45:34;7.90;99.90
8994;DHT22;4532;50.886;4.700;2023-03-07T15:50:51;7.70;99.90
8994;DHT22;4532;50.886;4.700;2023-03-07T15:53:27;7.60;99.90
8994;DHT22;4532;50.886;4.700;2023-03-07T15:56:03;7.60;99.90
8994;DHT22;4532;50.886;4.700;2023-03-07T15:58:34;7.50;99.90
8994;DHT22;4532;50.886;4.700;2023-03-07T16:01:26;7.50;99.90
8994;DHT22;4532;50.886;4.700;2023-03-07T16:03:55;7.40;99.90
8994;DHT22;4532;50.886;4.700;2023-03-07T16:06:45;7.40;99.90
8994;DHT22;4532;50.886;4.700;2023-03-07T16:09:17;7.30;99.90
8994;DHT22;4532;50.886;4.700;2023-03-07T16:11:49;7.30;99.90
8994;DHT22;4532;50.886;4.700;2023-03-07T16:14:25;7.30;99.90
8994;DHT22;4532;50.886;4.700;2023-03-07T16:17:15;7.20;99.90
8994;DHT22;4532;50.886;4.700;2023-03-07T16:19:42;7.20;99.90
8994;DHT22;4532;50.886;4.700;2023-03-07T16:22:14;7.20;99.90
8994;DHT22;4532;50.886;4.700;2023-03-07T16:24:47;7.20;99.90
8994;DHT22;4532;50.886;4.700;2023-03-07T16:27:21;7.10;99.90
8994;DHT22;4532;50.886;4.700;2023-03-07T16:29:52;7.10;99.90
8994;DHT22;4532;50.886;4.700;2023-03-07T16:32:22;7.00;99.90
8994;DHT22;4532;50.886;4.700;2023-03-07T16:34:56;7.00;99.90
8994;DHT22;4532;50.886;4.700;2023-03-07T16:37:23;7.00;99.90
8994;DHT22;4532;50.886;4.700;2023-03-07T16:39:51;6.90;99.90
8994;DHT22;4532;50.886;4.700;2023-03-07T16:42:21;6.90;99.90
8994;DHT22;4532;50.886;4.700;2023-03-07T16:44:50;6.90;99.90
8994;DHT22;4532;50.886;4.700;2023-03-07T16:47:18;6.90;99.90
8994;DHT22;4532;50.886;4.700;2023-03-07T16:49:50;6.80;99.90
8994;DHT22;4532;50.886;4.700;2023-03-07T16:52:22;6.80;99.90
8994;DHT22;4532;50.886;4.700;2023-03-07T16:54:52;6.80;99.90
8994;DHT22;4532;50.886;4.700;2023-03-07T16:57:25;6.80;99.90
8994;DHT22;4532;50.886;4.700;2023-03-07T16:59:52;6.80;99.90
8994;DHT22;4532;50.886;4.700;2023-03-07T17:02:20;6.80;99.90
8994;DHT22;4532;50.886;4.700;2023-03-07T17:04:51;6.70;99.90
8994;DHT22;4532;50.886;4.700;2023-03-07T17:07:22;6.70;99.90
8994;DHT22;4532;50.886;4.700;2023-03-07T17:09:52;6.70;99.90
8994;DHT22;4532;50.886;4.700;2023-03-07T17:12:22;6.70;99.90
8994;DHT22;4532;50.886;4.700;2023-03-07T17:14:51;6.70;99.90
8994;DHT22;4532;50.886;4.700;2023-03-07T17:17:29;6.60;99.90
8994;DHT22;4532;50.886;4.700;2023-03-07T17:20:02;6.60;99.90
8994;DHT22;4532;50.886;4.700;2023-03-07T17:22:31;6.60;99.90
8994;DHT22;4532;50.886;4.700;2023-03-07T17:25:01;6.60;99.90
8994;DHT22;4532;50.886;4.700;2023-03-07T17:27:32;6.60;99.90
8994;DHT22;4532;50.886;4.700;2023-03-07T17:30:02;6.60;99.90
8994;DHT22;4532;50.886;4.700;2023-03-07T17:32:34;6.50;99.90
8994;DHT22;4532;50.886;4.700;2023-03-07T17:35:02;6.50;99.90
8994;DHT22;4532;50.886;4.700;2023-03-07T17:37:34;6.50;99.90
8994;DHT22;4532;50.886;4.700;2023-03-07T17:40:01;6.50;99.90
8994;DHT22;4532;50.886;4.700;2023-03-07T17:42:36;6.50;99.90
8994;DHT22;4532;50.886;4.700;2023-03-07T17:45:05;6.50;99.90
8994;DHT22;4532;50.886;4.700;2023-03-07T17:47:33;6.50;99.90
8994;DHT22;4532;50.886;4.700;2023-03-07T17:50:00;6.50;99.90
8994;DHT22;4532;50.886;4.700;2023-03-07T17:52:28;6.50;99.90
8994;DHT22;4532;50.886;4.700;2023-03-07T17:54:55;6.50;99.90
8994;DHT22;4532;50.886;4.700;2023-03-07T17:57:28;6.50;99.90
8994;DHT22;4532;50.886;4.700;2023-03-07T18:00:03;6.50;99.90
8994;DHT22;4532;50.886;4.700;2023-03-07T18:02:43;6.50;99.90
8994;DHT22;4532;50.886;4.700;2023-03-07T18:05:11;6.50;99.90
8994;DHT22;4532;50.886;4.700;2023-03-07T18:07:41;6.50;99.90
8994;DHT22;4532;50.886;4.700;2023-03-07T18:10:09;6.50;99.90
8994;DHT22;4532;50.886;4.700;2023-03-07T18:12:39;6.50;99.90
8994;DHT22;4532;50.886;4.700;2023-03-07T18:15:12;6.50;99.90
8994;DHT22;4532;50.886;4.700;2023-03-07T18:17:42;6.50;99.90
8994;DHT22;4532;50.886;4.700;2023-03-07T18:20:18;6.50;99.90
8994;DHT22;4532;50.886;4.700;2023-03-07T18:22:48;6.50;99.90
8994;DHT22;4532;50.886;4.700;2023-03-07T18:25:16;6.60;99.90
8994;DHT22;4532;50.886;4.700;2023-03-07T18:27:46;6.60;99.90
8994;DHT22;4532;50.886;4.700;2023-03-07T18:30:16;6.60;99.90
8994;DHT22;4532;50.886;4.700;2023-03-07T18:32:45;6.60;99.90
8994;DHT22;4532;50.886;4.700;2023-03-07T18:35:22;6.60;99.90
8994;DHT22;4532;50.886;4.700;2023-03-07T18:37:54;6.60;99.90
8994;DHT22;4532;50.886;4.700;2023-03-07T18:40:26;6.60;99.90
8994;DHT22;4532;50.886;4.700;2023-03-07T18:42:53;6.60;99.90
8994;DHT22;4532;50.886;4.700;2023-03-07T18:45:23;6.60;99.90
8994;DHT22;4532;50.886;4.700;2023-03-07T18:47:56;6.50;99.90
8994;DHT22;4532;50.886;4.700;2023-03-07T18:50:23;6.50;99.90
8994;DHT22;4532;50.886;4.700;2023-03-07T18:52:55;6.60;99.90
8994;DHT22;4532;50.886;4.700;2023-03-07T18:55:22;6.60;99.90
8994;DHT22;4532;50.886;4.700;2023-03-07T18:57:57;6.50;99.90
8994;DHT22;4532;50.886;4.700;2023-03-07T19:00:27;6.40;99.90
8994;DHT22;4532;50.886;4.700;2023-03-07T19:02:57;6.30;99.90
8994;DHT22;4532;50.886;4.700;2023-03-07T19:05:24;6.30;99.90
8994;DHT22;4532;50.886;4.700;2023-03-07T19:07:51;6.20;99.90
8994;DHT22;4532;50.886;4.700;2023-03-07T19:10:21;6.10;99.90
8994;DHT22;4532;50.886;4.700;2023-03-07T19:12:52;6.10;99.90
8994;DHT22;4532;50.886;4.700;2023-03-07T19:15:22;6.00;99.90
8994;DHT22;4532;50.886;4.700;2023-03-07T19:17:51;6.00;99.90
8994;DHT22;4532;50.886;4.700;2023-03-07T19:20:21;6.00;99.90
8994;DHT22;4532;50.886;4.700;2023-03-07T19:22:52;5.90;99.90
8994;DHT22;4532;50.886;4.700;2023-03-07T19:25:22;5.90;99.90
8994;DHT22;4532;50.886;4.700;2023-03-07T19:27:53;5.80;99.90
8994;DHT22;4532;50.886;4.700;2023-03-07T19:30:21;5.70;99.90
8994;DHT22;4532;50.886;4.700;2023-03-07T19:32:50;5.70;99.90
8994;DHT22;4532;50.886;4.700;2023-03-07T19:35:22;5.60;99.90
8994;DHT22;4532;50.886;4.700;2023-03-07T19:37:51;5.50;99.90
8994;DHT22;4532;50.886;4.700;2023-03-07T19:40:18;5.50;99.90
8994;DHT22;4532;50.886;4.700;2023-03-07T19:42:49;5.40;99.90
8994;DHT22;4532;50.886;4.700;2023-03-07T19:45:21;5.40;99.90
8994;DHT22;4532;50.886;4.700;2023-03-07T19:47:48;5.40;99.90
8994;DHT22;4532;50.886;4.700;2023-03-07T19:50:16;5.30;99.90
8994;DHT22;4532;50.886;4.700;2023-03-07T19:52:47;5.30;99.90
8994;DHT22;4532;50.886;4.700;2023-03-07T19:55:20;5.30;99.90
8994;DHT22;4532;50.886;4.700;2023-03-07T19:57:49;5.30;99.90